Redwood, New York
Current Conditions -  °F | °C
As of 1:13 AM on Sunday 23 Nov 2014 (Local Time) from KGTB Reporting Station
Light Rain Light Rain  
Wind Chill: 33°   Ceiling: 1000
Heat Index: 41°   Visibility: 7mi
Dew Point: 41°   Wind: 14mph
Humidity: 100%   Direction: 230°SW
Pressure: 29.95"   Gusts: NA
Location:  44.3°N, 75.8°W
Report Text: KGTB 230613Z AUTO 23012KT 7SM R03/5500FT -RA SCT006 OVC010 05/05 A2995 RMK AO2
Loading
Personal Weather Stations






























Interactive Weather Map New forecast layout! Learn more

10-Day Weather Forecast

Advertisements
Track Severe Weather on mobile